createdAt,value
2022-10-14T00:00:45.728Z,13.30
2022-10-14T00:03:12.333Z,13.30
2022-10-14T00:05:42.476Z,13.30
2022-10-14T00:08:09.802Z,13.30
2022-10-14T00:10:39.186Z,13.30
2022-10-14T00:13:06.006Z,13.20
2022-10-14T00:15:37.457Z,13.30
2022-10-14T00:18:04.743Z,13.30
2022-10-14T00:20:31.709Z,13.20
2022-10-14T00:22:58.399Z,13.20
2022-10-14T00:25:26.519Z,13.30
2022-10-14T00:27:53.546Z,13.20
2022-10-14T00:30:20.650Z,13.20
2022-10-14T00:32:47.425Z,13.30
2022-10-14T00:35:16.944Z,13.20
2022-10-14T00:37:44.193Z,13.20
2022-10-14T00:40:11.355Z,13.20
2022-10-14T00:42:38.384Z,13.20
2022-10-14T00:45:11.593Z,13.20
2022-10-14T00:47:39.208Z,13.00
2022-10-14T00:50:06.847Z,13.00
2022-10-14T00:52:37.019Z,13.00
2022-10-14T00:55:07.802Z,12.90
2022-10-14T00:57:36.172Z,12.90
2022-10-14T01:00:09.925Z,12.90
2022-10-14T01:02:37.238Z,13.00
2022-10-14T01:05:06.777Z,12.90
2022-10-14T01:07:42.783Z,12.90
2022-10-14T01:10:34.714Z,12.90
2022-10-14T01:13:09.939Z,12.80
2022-10-14T01:15:52.488Z,12.90
2022-10-14T01:18:25.562Z,12.90
2022-10-14T01:21:21.558Z,12.90
2022-10-14T01:24:05.559Z,12.90
2022-10-14T01:26:41.141Z,12.90
2022-10-14T01:29:25.978Z,12.90
2022-10-14T01:32:06.843Z,12.90
2022-10-14T01:34:41.250Z,12.90
2022-10-14T01:37:17.172Z,12.90
2022-10-14T01:39:52.422Z,12.90
2022-10-14T01:42:26.552Z,12.80
2022-10-14T01:45:11.192Z,12.90
2022-10-14T01:47:39.922Z,12.90
2022-10-14T01:50:15.547Z,12.90
2022-10-14T01:52:49.642Z,12.90
2022-10-14T01:55:21.268Z,12.90
2022-10-14T01:57:51.514Z,12.90
2022-10-14T02:00:18.455Z,12.90
2022-10-14T02:02:45.389Z,12.90
2022-10-14T02:05:26.842Z,13.00
2022-10-14T02:08:03.036Z,13.00
2022-10-14T02:11:01.011Z,13.00
2022-10-14T02:13:52.212Z,13.00
2022-10-14T02:16:29.226Z,13.00
2022-10-14T02:19:08.957Z,13.00
2022-10-14T02:22:04.081Z,13.00
2022-10-14T02:24:41.259Z,13.00
2022-10-14T02:27:16.430Z,13.10
2022-10-14T02:29:46.529Z,13.00
2022-10-14T02:32:16.379Z,13.00
2022-10-14T02:34:46.956Z,13.00
2022-10-14T02:37:16.510Z,13.10
2022-10-14T02:39:51.797Z,13.20
2022-10-14T02:42:19.170Z,13.10
2022-10-14T02:44:58.510Z,13.10
2022-10-14T02:47:28.759Z,13.20
2022-10-14T02:49:56.152Z,13.20
2022-10-14T02:52:23.519Z,13.10
2022-10-14T02:54:51.184Z,13.10
2022-10-14T02:57:18.266Z,13.10
2022-10-14T02:59:45.625Z,13.10
2022-10-14T03:02:12.930Z,13.10
2022-10-14T03:04:40.076Z,13.10
2022-10-14T03:07:07.649Z,13.10
2022-10-14T03:09:34.952Z,13.20
2022-10-14T03:12:01.831Z,13.10
2022-10-14T03:14:28.681Z,13.10
2022-10-14T03:16:55.595Z,13.20
2022-10-14T03:19:22.452Z,13.20
2022-10-14T03:21:49.344Z,13.20
2022-10-14T03:24:16.455Z,13.20
2022-10-14T03:26:43.410Z,13.20
2022-10-14T03:29:10.976Z,13.20
2022-10-14T03:31:37.851Z,13.30
2022-10-14T03:34:04.732Z,13.30
2022-10-14T03:36:31.732Z,13.20
2022-10-14T03:38:58.511Z,13.30
2022-10-14T03:41:25.642Z,13.30
2022-10-14T03:43:52.731Z,13.30
2022-10-14T03:46:19.934Z,13.40
2022-10-14T03:48:46.699Z,13.40
2022-10-14T03:51:13.712Z,13.40
2022-10-14T03:53:40.977Z,13.40
2022-10-14T03:56:08.234Z,13.40
2022-10-14T03:58:35.019Z,13.40
2022-10-14T04:01:01.927Z,13.40
2022-10-14T04:03:28.884Z,13.30
2022-10-14T04:05:55.831Z,13.40
2022-10-14T04:08:23.112Z,13.40
2022-10-14T04:10:54.484Z,13.30
2022-10-14T04:13:24.573Z,13.30
2022-10-14T04:15:51.531Z,13.40
2022-10-14T04:18:18.443Z,13.40
2022-10-14T04:20:45.393Z,13.40
2022-10-14T04:23:12.685Z,13.40
2022-10-14T04:25:39.997Z,13.40
2022-10-14T04:28:07.023Z,13.40
2022-10-14T04:30:33.751Z,13.40
2022-10-14T04:33:00.461Z,13.40
2022-10-14T04:35:27.114Z,13.40
2022-10-14T04:37:54.772Z,13.50
2022-10-14T04:40:25.628Z,13.40
2022-10-14T04:42:59.093Z,13.40
2022-10-14T04:45:26.179Z,13.40
2022-10-14T04:47:52.991Z,13.40
2022-10-14T04:50:20.033Z,13.40
2022-10-14T04:52:46.851Z,13.40
2022-10-14T04:55:13.912Z,13.30
2022-10-14T04:57:45.998Z,13.30
2022-10-14T05:00:13.487Z,13.30
2022-10-14T05:02:40.559Z,13.30
2022-10-14T05:05:08.176Z,13.40
2022-10-14T05:07:35.570Z,13.40
2022-10-14T05:10:04.635Z,13.40
2022-10-14T05:12:32.387Z,13.30
2022-10-14T05:14:59.576Z,13.30
2022-10-14T05:17:26.562Z,13.30
2022-10-14T05:20:08.588Z,13.30
2022-10-14T05:22:56.161Z,13.30
2022-10-14T05:25:40.270Z,13.40
2022-10-14T05:28:10.117Z,13.40
2022-10-14T05:30:39.988Z,13.40
2022-10-14T05:33:08.683Z,13.40
2022-10-14T05:35:58.041Z,13.40
2022-10-14T05:38:30.144Z,13.40
2022-10-14T05:41:07.237Z,13.50
2022-10-14T05:43:39.599Z,13.50
2022-10-14T05:46:25.202Z,13.50
2022-10-14T05:48:55.875Z,13.40
2022-10-14T05:54:46.150Z,13.50
2022-10-14T05:57:57.395Z,13.60
2022-10-14T06:08:03.469Z,13.50
2022-10-14T06:11:18.443Z,13.50
2022-10-14T06:21:01.084Z,13.50
2022-10-14T06:23:42.734Z,13.50
2022-10-14T06:29:39.135Z,13.50
2022-10-14T06:39:41.981Z,13.60
2022-10-14T06:42:14.832Z,13.50
2022-10-14T06:45:00.262Z,13.60
2022-10-14T06:53:00.442Z,13.70
2022-10-14T06:56:02.118Z,13.60
2022-10-14T06:58:29.460Z,13.70
2022-10-14T07:01:00.417Z,13.70
2022-10-14T07:03:27.092Z,13.70
2022-10-14T07:05:53.814Z,13.70
2022-10-14T07:08:20.474Z,13.70
2022-10-14T07:10:47.902Z,13.80
2022-10-14T07:13:14.914Z,13.80
2022-10-14T07:15:41.599Z,13.80
2022-10-14T07:18:08.399Z,13.80
2022-10-14T07:20:35.329Z,13.80
2022-10-14T07:23:02.011Z,13.80
2022-10-14T07:25:28.729Z,13.80
2022-10-14T07:27:55.445Z,13.90
2022-10-14T07:30:22.367Z,13.80
2022-10-14T07:32:49.091Z,13.90
2022-10-14T07:35:16.080Z,14.00
2022-10-14T07:37:42.873Z,14.00
2022-10-14T07:40:10.597Z,14.10
2022-10-14T07:42:37.491Z,14.00
2022-10-14T07:45:05.399Z,14.00
2022-10-14T07:47:33.918Z,14.10
2022-10-14T07:50:01.888Z,14.00
2022-10-14T07:52:28.683Z,14.00
2022-10-14T07:54:55.420Z,14.10
2022-10-14T07:57:23.427Z,14.10
2022-10-14T07:59:52.485Z,14.10
2022-10-14T08:02:20.110Z,14.10
2022-10-14T08:04:47.143Z,14.10
2022-10-14T08:07:16.867Z,14.20
2022-10-14T08:09:43.902Z,14.20
2022-10-14T08:12:10.733Z,14.30
2022-10-14T08:14:37.894Z,14.20
2022-10-14T08:17:04.740Z,14.30
2022-10-14T08:19:31.607Z,14.30
2022-10-14T08:21:59.142Z,14.30
2022-10-14T08:24:25.867Z,14.40
2022-10-14T08:26:58.997Z,14.40
2022-10-14T08:29:26.636Z,14.50
2022-10-14T08:31:55.137Z,14.50
2022-10-14T08:34:23.770Z,14.60
2022-10-14T08:36:51.331Z,14.70
2022-10-14T08:39:19.187Z,14.70
2022-10-14T08:42:01.417Z,14.70
2022-10-14T08:44:54.388Z,14.80
2022-10-14T08:47:26.582Z,14.80
2022-10-14T08:50:06.860Z,14.80
2022-10-14T08:52:41.797Z,14.90
2022-10-14T08:55:44.794Z,15.00
2022-10-14T08:58:34.682Z,15.00
2022-10-14T09:01:33.256Z,15.10
2022-10-14T09:04:04.875Z,15.10
2022-10-14T09:06:38.365Z,15.10
2022-10-14T09:09:07.669Z,15.20
2022-10-14T09:11:41.036Z,15.20
2022-10-14T09:14:21.004Z,15.10
2022-10-14T09:16:54.189Z,15.20
2022-10-14T09:19:41.404Z,15.20
2022-10-14T09:22:14.516Z,15.30
2022-10-14T09:24:42.156Z,15.30
2022-10-14T09:27:23.973Z,15.40
2022-10-14T09:30:00.775Z,15.40
2022-10-14T09:32:45.030Z,15.50
2022-10-14T09:35:31.684Z,15.50
2022-10-14T09:37:58.486Z,15.50
2022-10-14T09:40:35.982Z,15.50
2022-10-14T09:43:05.523Z,15.60
2022-10-14T09:46:02.030Z,15.60
2022-10-14T09:48:43.726Z,15.70
2022-10-14T09:51:18.167Z,15.70
2022-10-14T09:53:49.027Z,15.80
2022-10-14T09:56:17.984Z,15.80
2022-10-14T09:58:55.210Z,15.90
2022-10-14T10:01:25.205Z,15.90
2022-10-14T10:03:53.866Z,15.90
2022-10-14T10:06:25.519Z,15.90
2022-10-14T10:08:55.737Z,16.10
2022-10-14T10:11:38.631Z,16.10
2022-10-14T10:14:18.967Z,16.00
2022-10-14T10:16:46.062Z,15.90
2022-10-14T10:19:22.274Z,15.90
2022-10-14T10:21:49.230Z,15.90
2022-10-14T10:24:25.987Z,15.90
2022-10-14T10:26:55.396Z,15.90
2022-10-14T10:29:35.403Z,15.90
2022-10-14T10:32:30.100Z,15.90
2022-10-14T10:35:10.793Z,15.90
2022-10-14T10:37:48.558Z,15.90
2022-10-14T10:40:27.321Z,15.90
2022-10-14T10:43:21.725Z,15.90
2022-10-14T10:45:57.153Z,15.80
2022-10-14T10:48:42.604Z,15.90
2022-10-14T10:51:14.694Z,16.00
2022-10-14T10:54:02.830Z,16.00
2022-10-14T10:56:43.582Z,15.90
2022-10-14T10:59:31.560Z,16.00
2022-10-14T11:02:11.907Z,15.90
2022-10-14T11:05:14.017Z,15.90
2022-10-14T11:08:17.979Z,15.90
2022-10-14T11:11:35.319Z,16.00
2022-10-14T11:14:07.506Z,16.00
2022-10-14T11:17:03.138Z,16.00
2022-10-14T11:19:48.267Z,16.00
2022-10-14T11:22:28.825Z,16.00
2022-10-14T11:25:14.206Z,16.00
2022-10-14T11:27:58.630Z,16.00
2022-10-14T11:31:05.086Z,16.00
2022-10-14T11:34:03.259Z,15.90
2022-10-14T11:36:43.269Z,15.90
2022-10-14T11:39:15.895Z,15.90
2022-10-14T11:41:42.511Z,15.80
2022-10-14T11:44:12.378Z,15.80
2022-10-14T11:46:45.516Z,15.90
2022-10-14T11:49:30.156Z,15.90
2022-10-14T11:52:00.391Z,15.80
2022-10-14T11:54:48.003Z,15.80
2022-10-14T11:57:25.130Z,15.80
2022-10-14T12:00:29.449Z,15.80
2022-10-14T12:03:21.595Z,15.80
2022-10-14T12:05:59.317Z,15.70
2022-10-14T12:11:52.489Z,15.70
2022-10-14T12:14:21.393Z,15.80
2022-10-14T12:16:48.999Z,15.90
2022-10-14T12:19:25.646Z,15.90
2022-10-14T12:22:02.672Z,15.90
2022-10-14T12:24:36.105Z,15.90
2022-10-14T12:27:05.359Z,15.90
2022-10-14T12:29:36.646Z,15.90
2022-10-14T12:32:03.304Z,15.90
2022-10-14T12:34:38.008Z,15.90
2022-10-14T12:37:32.359Z,15.90
2022-10-14T12:40:02.673Z,16.00
2022-10-14T12:42:51.290Z,16.00
2022-10-14T12:45:22.540Z,15.90
2022-10-14T12:48:15.667Z,15.80
2022-10-14T12:50:46.990Z,15.80
2022-10-14T12:53:24.788Z,15.80
2022-10-14T12:55:55.394Z,15.80
2022-10-14T12:58:36.073Z,15.80
2022-10-14T13:01:16.375Z,16.00
2022-10-14T13:04:20.036Z,16.00
2022-10-14T13:07:38.877Z,16.10
2022-10-14T13:10:45.842Z,16.00
2022-10-14T13:13:42.033Z,16.00
2022-10-14T13:16:32.065Z,16.00
2022-10-14T13:19:00.417Z,16.00
2022-10-14T13:21:38.829Z,16.00
2022-10-14T13:24:23.035Z,16.00
2022-10-14T13:26:55.770Z,16.00
2022-10-14T13:29:54.361Z,16.00
2022-10-14T13:32:31.103Z,16.00
2022-10-14T13:35:10.479Z,16.00
2022-10-14T13:38:04.602Z,16.00
2022-10-14T13:40:46.774Z,15.90
2022-10-14T13:43:19.502Z,15.90
2022-10-14T13:46:02.436Z,15.80
2022-10-14T13:48:37.635Z,15.80
2022-10-14T13:51:39.240Z,15.80
2022-10-14T13:54:14.976Z,15.80
2022-10-14T13:56:42.102Z,15.80
2022-10-14T13:59:43.114Z,15.80
2022-10-14T14:02:25.097Z,15.90
2022-10-14T14:04:55.796Z,15.80
2022-10-14T14:08:21.761Z,15.80
2022-10-14T14:10:17.818Z,15.80
2022-10-14T14:12:45.082Z,15.70
2022-10-14T14:15:28.861Z,15.70
2022-10-14T14:17:55.586Z,15.70
2022-10-14T14:20:25.114Z,15.60
2022-10-14T14:22:52.029Z,15.60
2022-10-14T14:25:38.190Z,15.70
2022-10-14T14:28:15.362Z,15.70
2022-10-14T14:30:55.289Z,15.80
2022-10-14T14:33:34.294Z,15.80
2022-10-14T14:36:04.145Z,15.80
2022-10-14T14:38:37.216Z,15.80
2022-10-14T14:41:05.161Z,15.70
2022-10-14T14:43:35.791Z,15.80
2022-10-14T14:46:05.531Z,15.90
2022-10-14T14:48:33.908Z,15.80
2022-10-14T14:51:01.161Z,15.90
2022-10-14T14:53:31.660Z,16.00
2022-10-14T14:56:10.463Z,16.00
2022-10-14T14:58:57.601Z,15.90
2022-10-14T15:01:26.786Z,15.90
2022-10-14T15:04:18.082Z,15.90
2022-10-14T15:07:03.527Z,15.90
2022-10-14T15:09:35.097Z,15.90
2022-10-14T15:12:05.385Z,15.90
2022-10-14T15:14:52.440Z,15.90
2022-10-14T15:17:37.865Z,15.90
2022-10-14T15:20:04.593Z,15.90
2022-10-14T15:22:33.248Z,15.90
2022-10-14T15:25:11.582Z,15.90
2022-10-14T15:27:44.364Z,15.90
2022-10-14T15:30:41.074Z,16.00
2022-10-14T15:33:16.565Z,15.90
2022-10-14T15:35:44.884Z,15.90
2022-10-14T15:38:18.868Z,15.90
2022-10-14T15:40:47.233Z,15.90
2022-10-14T15:43:20.784Z,15.80
2022-10-14T15:46:11.422Z,15.90
2022-10-14T15:48:47.410Z,15.90
2022-10-14T15:51:16.562Z,15.90
2022-10-14T15:53:43.664Z,15.90
2022-10-14T15:56:10.385Z,15.80
2022-10-14T15:58:37.231Z,15.80
2022-10-14T16:01:06.355Z,15.70
2022-10-14T16:03:35.991Z,15.70
2022-10-14T16:06:05.785Z,15.80
2022-10-14T16:08:33.496Z,15.70
2022-10-14T16:11:00.503Z,15.70
2022-10-14T16:13:27.289Z,15.60
2022-10-14T16:16:00.127Z,15.70
2022-10-14T16:18:26.907Z,15.60
2022-10-14T16:20:53.627Z,15.60
2022-10-14T16:23:22.535Z,15.70
2022-10-14T16:25:50.062Z,15.70
2022-10-14T16:28:18.110Z,15.80
2022-10-14T16:30:50.130Z,15.80
2022-10-14T16:33:18.966Z,15.80
2022-10-14T16:35:54.853Z,15.80
2022-10-14T16:38:22.621Z,15.80
2022-10-14T16:40:57.193Z,15.80
2022-10-14T16:43:24.844Z,15.70
2022-10-14T16:45:51.636Z,15.70
2022-10-14T16:48:19.341Z,15.60
2022-10-14T16:50:50.291Z,15.60
2022-10-14T16:53:35.722Z,15.50
2022-10-14T16:56:02.603Z,15.50
2022-10-14T16:58:29.348Z,15.50
2022-10-14T17:00:56.478Z,15.60
2022-10-14T17:03:23.343Z,15.60
2022-10-14T17:05:57.583Z,15.60
2022-10-14T17:08:24.713Z,15.70
2022-10-14T17:10:51.442Z,15.60
2022-10-14T17:13:18.459Z,15.60
2022-10-14T17:15:45.241Z,15.60
2022-10-14T17:18:12.622Z,15.60
2022-10-14T17:20:39.789Z,15.50
2022-10-14T17:23:10.330Z,15.60
2022-10-14T17:25:37.358Z,15.60
2022-10-14T17:28:04.046Z,15.60
2022-10-14T17:30:30.903Z,15.60
2022-10-14T17:32:57.570Z,15.50
2022-10-14T17:35:24.309Z,15.50
2022-10-14T17:37:51.411Z,15.50
2022-10-14T17:40:18.345Z,15.50
2022-10-14T17:42:45.066Z,15.40
2022-10-14T17:45:12.250Z,15.40
2022-10-14T17:47:39.010Z,15.30
2022-10-14T17:50:07.018Z,15.40
2022-10-14T17:52:33.739Z,15.30
2022-10-14T17:55:01.516Z,15.30
2022-10-14T17:57:28.462Z,15.30
2022-10-14T17:59:55.183Z,15.30
2022-10-14T18:02:22.085Z,15.30
2022-10-14T18:04:49.813Z,15.30
2022-10-14T18:07:18.721Z,15.30
2022-10-14T18:09:45.498Z,15.20
2022-10-14T18:12:12.240Z,15.30
2022-10-14T18:14:40.603Z,15.20
2022-10-14T18:17:10.564Z,15.30
2022-10-14T18:19:37.547Z,15.20
2022-10-14T18:22:06.597Z,15.20
2022-10-14T18:24:38.857Z,15.30
2022-10-14T18:27:05.954Z,15.20
2022-10-14T18:29:32.703Z,15.20
2022-10-14T18:31:59.513Z,15.10
2022-10-14T18:34:27.424Z,15.00
2022-10-14T18:36:54.233Z,15.00
2022-10-14T18:39:20.980Z,15.00
2022-10-14T18:41:48.425Z,14.90
2022-10-14T18:44:15.214Z,14.90
2022-10-14T18:46:42.287Z,14.80
2022-10-14T18:49:11.203Z,14.80
2022-10-14T18:51:39.218Z,14.70
2022-10-14T18:54:08.390Z,14.70
2022-10-14T18:56:38.812Z,14.60
2022-10-14T18:59:14.620Z,14.60
2022-10-14T19:01:42.784Z,14.50
2022-10-14T19:04:15.016Z,14.50
2022-10-14T19:06:45.951Z,14.50
2022-10-14T19:09:13.912Z,14.40
2022-10-14T19:11:41.663Z,14.40
2022-10-14T19:14:09.933Z,14.30
2022-10-14T19:16:38.920Z,14.30
2022-10-14T19:19:18.241Z,14.20
2022-10-14T19:21:47.871Z,14.20
2022-10-14T19:24:14.955Z,14.10
2022-10-14T19:26:45.370Z,14.10
2022-10-14T19:29:14.509Z,14.00
2022-10-14T19:31:42.339Z,14.00
2022-10-14T19:34:11.889Z,14.00
2022-10-14T19:36:39.768Z,14.00
2022-10-14T19:39:09.663Z,13.90
2022-10-14T19:41:42.735Z,13.90
2022-10-14T19:44:10.829Z,13.90
2022-10-14T19:46:38.232Z,13.90
2022-10-14T19:49:06.139Z,13.90
2022-10-14T19:51:34.337Z,13.90
2022-10-14T19:54:01.267Z,13.80
2022-10-14T19:56:28.660Z,13.80
2022-10-14T19:58:57.405Z,13.80
2022-10-14T20:01:26.830Z,13.90
2022-10-14T20:03:54.238Z,13.90
2022-10-14T20:06:22.322Z,13.90
2022-10-14T20:08:49.873Z,13.80
2022-10-14T20:11:19.599Z,13.80
2022-10-14T20:13:46.627Z,13.80
2022-10-14T20:16:13.688Z,13.80
2022-10-14T20:18:40.921Z,13.80
2022-10-14T20:21:08.667Z,13.80
2022-10-14T20:23:36.855Z,13.80
2022-10-14T20:26:08.316Z,13.80
2022-10-14T20:28:36.316Z,13.80
2022-10-14T20:31:07.798Z,13.80
2022-10-14T20:33:34.704Z,13.80
2022-10-14T20:36:03.511Z,13.80
2022-10-14T20:38:30.301Z,13.80
2022-10-14T20:41:03.947Z,13.80
2022-10-14T20:43:30.645Z,13.80
2022-10-14T20:45:57.322Z,13.70
2022-10-14T20:48:24.143Z,13.70
2022-10-14T20:50:50.891Z,13.70
2022-10-14T20:53:17.677Z,13.70
2022-10-14T20:55:44.519Z,13.70
2022-10-14T20:58:11.331Z,13.60
2022-10-14T21:00:38.102Z,13.60
2022-10-14T21:03:04.779Z,13.60
2022-10-14T21:05:31.468Z,13.50
2022-10-14T21:07:58.277Z,13.50
2022-10-14T21:10:24.980Z,13.40
2022-10-14T21:12:51.885Z,13.40
2022-10-14T21:15:18.595Z,13.30
2022-10-14T21:17:49.212Z,13.30
2022-10-14T21:20:16.284Z,13.30
2022-10-14T21:22:43.066Z,13.20
2022-10-14T21:25:09.873Z,13.20
2022-10-14T21:27:36.552Z,13.10
2022-10-14T21:30:04.685Z,13.10
2022-10-14T21:32:33.171Z,13.00
2022-10-14T21:34:59.932Z,13.00
2022-10-14T21:37:26.643Z,12.90
2022-10-14T21:39:53.377Z,12.90
2022-10-14T21:42:20.473Z,12.90
2022-10-14T21:44:47.324Z,12.90
2022-10-14T21:47:14.116Z,12.80
2022-10-14T21:49:40.816Z,12.80
2022-10-14T21:52:08.136Z,12.70
2022-10-14T21:54:34.794Z,12.70
2022-10-14T21:57:01.919Z,12.70
2022-10-14T21:59:28.608Z,12.70
2022-10-14T22:01:58.787Z,12.70
2022-10-14T22:04:28.863Z,12.60
2022-10-14T22:06:55.627Z,12.60
2022-10-14T22:09:22.406Z,12.60
2022-10-14T22:11:49.232Z,12.60
2022-10-14T22:14:17.783Z,12.60
2022-10-14T22:16:45.683Z,12.50
2022-10-14T22:19:14.040Z,12.50
2022-10-14T22:21:43.100Z,12.50
2022-10-14T22:24:10.529Z,12.50
2022-10-14T22:26:38.289Z,12.50
2022-10-14T22:29:16.496Z,12.40
2022-10-14T22:31:44.241Z,12.50
2022-10-14T22:34:13.572Z,12.40
2022-10-14T22:36:40.661Z,12.50
2022-10-14T22:39:12.405Z,12.50
2022-10-14T22:41:39.485Z,12.50
2022-10-14T22:44:06.462Z,12.50
2022-10-14T22:46:36.112Z,12.50
2022-10-14T22:49:03.081Z,12.50
2022-10-14T22:51:35.801Z,12.50
2022-10-14T22:54:02.586Z,12.50
2022-10-14T22:56:31.249Z,12.50
2022-10-14T22:59:00.623Z,12.50
2022-10-14T23:01:28.229Z,12.50
2022-10-14T23:03:56.576Z,12.40
2022-10-14T23:06:23.451Z,12.40
2022-10-14T23:08:50.920Z,12.40
2022-10-14T23:11:19.883Z,12.40
2022-10-14T23:13:47.291Z,12.40
2022-10-14T23:16:19.422Z,12.40
2022-10-14T23:18:47.014Z,12.40
2022-10-14T23:21:15.400Z,12.40
2022-10-14T23:23:43.708Z,12.40
2022-10-14T23:26:11.715Z,12.40
2022-10-14T23:28:39.278Z,12.40
2022-10-14T23:31:15.201Z,12.40
2022-10-14T23:33:42.864Z,12.40
2022-10-14T23:36:12.243Z,12.40
2022-10-14T23:38:39.773Z,12.40
2022-10-14T23:41:07.906Z,12.40
2022-10-14T23:43:34.800Z,12.40
2022-10-14T23:46:01.909Z,12.40
2022-10-14T23:48:28.722Z,12.40
2022-10-14T23:50:55.820Z,12.40
2022-10-14T23:53:23.657Z,12.40
2022-10-14T23:55:50.761Z,12.30
2022-10-14T23:58:17.766Z,12.30
